Time;durP1;ratioP1;P1;durP2;ratioP2;P2;SDS_P1;SDS_P2;PMS_P1;PMS_P2;Temp;Humidity;BMP_temperature;BMP_pressure;BME280_temperature;BME280_humidity;BME280_pressure;Samples;Min_cycle;Max_cycle;Signal;HPM_P1;HPM_P2
2022/08/16 00:00:51;;;;;;;10.70;7.03;;;;;;;22.89;63.26;100705.34;2094248;28;20143;-74
2022/08/16 00:02:12;;;;;;;16.02;7.85;;;;;;;22.86;63.72;100709.00;2099171;28;20071;-74
2022/08/16 00:03:35;;;;;;;10.25;7.18;;;;;;;22.84;63.42;100700.09;2103126;28;20123;-74
2022/08/16 00:04:57;;;;;;;11.13;6.85;;;;;;;22.84;63.41;100702.78;2094325;28;20079;-74
2022/08/16 00:06:19;;;;;;;12.05;7.20;;;;;;;22.87;63.37;100700.00;2091696;28;20780;-74
2022/08/16 00:07:42;;;;;;;;;;;;;;;22.88;63.44;100692.81;2089765;28;20842;-74
2022/08/16 00:09:04;;;;;;;12.20;7.95;;;;;;;22.92;63.31;100697.13;2108910;28;19924;-73
2022/08/16 00:10:31;;;;;;;12.15;7.72;;;;;;;22.95;63.30;100691.66;2100226;28;20282;-74
2022/08/16 00:11:54;;;;;;;10.10;6.95;;;;;;;22.83;63.47;100700.19;2095320;28;20091;-73
2022/08/16 00:13:16;;;;;;;11.98;7.15;;;;;;;22.68;63.78;100696.19;2097178;28;20080;-73
2022/08/16 00:14:39;;;;;;;10.65;6.90;;;;;;;22.61;64.00;100689.25;2105126;28;20430;-74
2022/08/16 00:16:00;;;;;;;11.13;7.78;;;;;;;22.64;63.99;100691.84;2111299;28;20515;-74
2022/08/16 00:17:23;;;;;;;12.20;7.22;;;;;;;22.67;63.82;100692.59;2097370;28;20109;-74
2022/08/16 00:18:45;;;;;;;10.98;7.18;;;;;;;22.74;63.53;100690.59;2102707;28;20112;-73
2022/08/16 00:20:09;;;;;;;11.43;7.07;;;;;;;22.76;63.38;100693.25;2103201;28;20114;-74
2022/08/16 00:21:31;;;;;;;10.93;7.18;;;;;;;22.71;63.36;100692.50;2097325;28;20090;-74
2022/08/16 00:22:54;;;;;;;11.85;7.07;;;;;;;22.67;63.32;100686.34;2106046;28;20063;-74
2022/08/16 00:24:16;;;;;;;13.57;7.45;;;;;;;22.67;63.43;100687.22;2103359;28;20044;-74
2022/08/16 00:25:41;;;;;;;10.13;6.93;;;;;;;22.68;63.48;100685.41;2102639;28;20044;-74
2022/08/16 00:27:03;;;;;;;11.10;7.00;;;;;;;22.66;63.51;100679.19;2102917;28;20055;-73
2022/08/16 00:28:25;;;;;;;11.10;7.60;;;;;;;22.61;63.62;100681.19;2097866;28;20592;-74
2022/08/16 00:29:48;;;;;;;10.55;6.97;;;;;;;22.59;63.64;100683.91;2095070;28;20071;-74
2022/08/16 00:31:09;;;;;;;13.07;7.70;;;;;;;22.57;63.70;100679.53;2094663;28;20048;-74
2022/08/16 00:32:32;;;;;;;14.48;7.95;;;;;;;22.55;63.69;100684.97;2100015;28;20131;-74
2022/08/16 00:33:53;;;;;;;11.50;7.28;;;;;;;22.52;63.86;100676.97;2117853;27;20479;-74
2022/08/16 00:35:19;;;;;;;11.50;7.30;;;;;;;22.42;63.92;100680.06;2108381;28;20059;-73
2022/08/16 00:36:45;;;;;;;10.95;7.07;;;;;;;22.24;64.33;100684.25;2102823;28;20051;-73
2022/08/16 00:38:07;;;;;;;10.80;6.55;;;;;;;22.08;64.84;100677.63;2094137;28;20588;-74
2022/08/16 00:39:29;;;;;;;12.07;7.05;;;;;;;21.95;65.14;100678.91;2096725;28;20063;-74
2022/08/16 00:40:55;;;;;;;12.15;7.07;;;;;;;21.87;65.43;100677.34;2100021;28;20051;-73
2022/08/16 00:42:17;;;;;;;9.75;6.80;;;;;;;21.82;65.76;100679.31;2120077;27;20054;-74
2022/08/16 00:43:39;;;;;;;;;;;;;;;21.82;65.62;100679.31;2099726;28;20474;-74
2022/08/16 00:45:05;;;;;;;11.68;6.47;;;;;;;21.91;65.58;100674.59;2102931;28;19935;-74
2022/08/16 00:46:31;;;;;;;10.68;7.45;;;;;;;22.03;65.39;100683.16;2096371;28;20056;-74
2022/08/16 00:47:54;;;;;;;11.52;7.07;;;;;;;22.12;64.92;100682.84;2101142;28;20125;-73
2022/08/16 00:49:17;;;;;;;11.48;7.65;;;;;;;22.16;64.70;100679.13;2105563;28;20182;-73
2022/08/16 00:50:39;;;;;;;9.55;6.63;;;;;;;;;;2102652;28;20500;-73
2022/08/16 00:52:01;;;;;;;10.05;7.20;;;;;;;22.22;64.61;100678.94;2102225;28;20040;-73
2022/08/16 00:53:23;;;;;;;10.48;6.97;;;;;;;22.18;64.57;100679.09;2105354;28;20427;-74
2022/08/16 00:54:48;;;;;;;10.32;6.35;;;;;;;22.08;64.70;100673.13;2100400;28;20040;-74
2022/08/16 00:56:17;;;;;;;10.73;7.07;;;;;;;21.96;65.03;100673.53;2096612;28;20056;-74
2022/08/16 00:57:40;;;;;;;10.65;6.13;;;;;;;21.83;65.37;100677.50;2101371;28;20066;-74
2022/08/16 00:59:02;;;;;;;10.75;7.03;;;;;;;21.77;65.47;100675.91;2095620;28;20862;-74
2022/08/16 01:00:27;;;;;;;9.43;6.10;;;;;;;21.72;65.69;100675.19;2102380;28;20519;-74
2022/08/16 01:01:49;;;;;;;12.18;7.07;;;;;;;21.69;65.63;100679.75;2111441;28;20124;-73
2022/08/16 01:03:14;;;;;;;9.98;6.35;;;;;;;21.70;65.69;100678.81;2098335;28;20437;-73
2022/08/16 01:04:37;;;;;;;9.43;6.45;;;;;;;21.69;65.79;100680.63;2109466;28;20641;-73
2022/08/16 01:05:59;;;;;;;10.27;6.70;;;;;;;21.72;65.76;100682.34;2097143;28;20098;-73
2022/08/16 01:07:21;;;;;;;;;;;;;;;21.75;65.76;100685.81;2099682;28;20044;-74
2022/08/16 01:08:44;;;;;;;;;;;;;;;21.80;65.42;100685.66;2102929;28;20396;-73
2022/08/16 01:10:07;;;;;;;10.50;6.72;;;;;;;21.88;65.29;100687.19;2106523;28;19924;-74
2022/08/16 01:11:31;;;;;;;10.45;6.68;;;;;;;21.90;65.02;100689.81;2086071;28;20043;-74
2022/08/16 01:12:52;;;;;;;9.60;6.30;;;;;;;21.85;65.24;100687.28;2101190;28;20167;-73
2022/08/16 01:14:18;;;;;;;9.65;6.82;;;;;;;21.88;65.27;100691.69;2103589;28;20047;-74
2022/08/16 01:15:51;;;;;;;11.50;7.05;;;;;;;21.86;65.15;100697.09;2099262;28;20105;-74
2022/08/16 01:17:15;;;;;;;10.80;6.32;;;;;;;21.85;65.25;100702.53;2103042;28;20047;-74
2022/08/16 01:18:44;;;;;;;11.90;6.85;;;;;;;21.86;65.27;100701.59;2102331;28;20071;-73
2022/08/16 01:20:09;;;;;;;11.25;6.78;;;;;;;21.84;65.27;100709.72;2096639;28;20079;-74
2022/08/16 01:21:43;;;;;;;11.70;7.05;;;;;;;21.88;65.40;100711.38;2096257;28;20496;-74
2022/08/16 01:23:13;;;;;;;9.63;7.10;;;;;;;21.93;65.39;100707.66;2087583;28;20090;-74
2022/08/16 01:24:43;;;;;;;11.48;6.65;;;;;;;22.00;65.19;100710.13;2101957;28;20047;-74
2022/08/16 01:26:05;;;;;;;10.38;7.05;;;;;;;22.06;65.04;100709.03;2095308;28;20051;-73
2022/08/16 01:27:32;;;;;;;9.85;7.07;;;;;;;22.11;64.87;100710.69;2091265;28;20581;-74
2022/08/16 01:28:54;;;;;;;10.15;6.88;;;;;;;22.16;64.55;100707.84;2092668;28;20134;-74
2022/08/16 01:30:23;;;;;;;10.07;6.75;;;;;;;22.22;64.43;100704.94;2099241;28;20036;-74
2022/08/16 01:31:48;;;;;;;9.75;6.63;;;;;;;22.23;64.23;100717.47;2112331;28;20038;-74
2022/08/16 01:33:10;;;;;;;;;;;;;;;22.14;64.17;100713.25;2105488;28;20057;-73
2022/08/16 01:34:32;;;;;;;10.82;6.97;;;;;;;22.11;64.34;100718.75;2095557;28;20567;-74
2022/08/16 01:35:58;;;;;;;10.73;6.70;;;;;;;22.09;64.46;100717.91;2091045;28;20131;-73
2022/08/16 01:37:20;;;;;;;9.93;6.90;;;;;;;22.13;64.76;100719.56;2108462;28;20043;-73
2022/08/16 01:38:47;;;;;;;11.18;7.35;;;;;;;22.17;64.38;100718.56;2088379;28;20159;-74
2022/08/16 01:40:13;;;;;;;13.52;6.72;;;;;;;22.15;64.59;100722.22;2101321;28;20441;-74
2022/08/16 01:41:35;;;;;;;12.52;7.18;;;;;;;22.15;64.54;100716.81;2103411;28;20044;-74
2022/08/16 01:42:58;;;;;;;10.43;6.95;;;;;;;22.19;64.57;100721.16;2093270;28;20134;-74
2022/08/16 01:44:20;;;;;;;10.68;7.75;;;;;;;22.22;64.24;100724.66;2091722;28;20040;-74
2022/08/16 01:45:42;;;;;;;12.93;7.32;;;;;;;22.22;64.09;100727.34;2093045;28;20052;-74
2022/08/16 01:47:09;;;;;;;10.13;7.03;;;;;;;22.18;64.04;100725.69;2095979;28;20684;-74
2022/08/16 01:48:32;;;;;;;11.93;6.53;;;;;;;22.15;64.07;100720.41;2100277;28;20038;-74
2022/08/16 01:49:55;;;;;;;11.45;6.63;;;;;;;22.16;63.98;100718.59;2102195;28;20055;-74
2022/08/16 01:51:19;;;;;;;9.27;6.35;;;;;;;22.19;63.84;100718.47;2093160;28;20131;-74
2022/08/16 01:52:43;;;;;;;11.20;7.05;;;;;;;22.17;63.77;100723.03;2099633;28;20086;-74
2022/08/16 01:54:11;;;;;;;8.77;6.15;;;;;;;22.10;63.77;100713.41;2120270;27;20039;-74
2022/08/16 01:55:44;;;;;;;10.27;6.82;;;;;;;21.99;64.13;100724.50;2106607;28;20044;-74
2022/08/16 01:57:06;;;;;;;9.25;6.57;;;;;;;21.95;64.33;100724.63;2093829;28;20527;-73
2022/08/16 01:58:29;;;;;;;10.02;6.32;;;;;;;21.95;64.39;100725.50;2099210;28;20040;-74
2022/08/16 01:59:52;;;;;;;8.82;6.20;;;;;;;21.97;64.42;100730.88;2095058;28;20052;-74
2022/08/16 02:01:13;;;;;;;11.60;6.40;;;;;;;22.00;64.36;100728.06;2099847;28;20492;-74
2022/08/16 02:02:36;;;;;;;11.20;6.90;;;;;;;22.02;64.22;100724.41;2098095;28;20113;-73
2022/08/16 02:03:59;;;;;;;12.02;7.28;;;;;;;22.02;64.15;100732.47;2099517;28;20055;-74
2022/08/16 02:05:21;;;;;;;11.30;7.43;;;;;;;21.99;64.36;100729.03;2093579;28;20048;-74
2022/08/16 02:06:43;;;;;;;9.40;6.53;;;;;;;21.94;64.64;100730.91;2090688;28;20068;-73
2022/08/16 02:08:06;;;;;;;10.30;6.80;;;;;;;21.94;64.80;100731.81;2099771;28;20772;-74
2022/08/16 02:09:29;;;;;;;10.32;6.85;;;;;;;21.98;64.72;100730.84;2094016;28;20488;-74
2022/08/16 02:10:53;;;;;;;10.32;6.78;;;;;;;22.03;64.59;100730.69;2096793;28;20044;-74
2022/08/16 02:12:16;;;;;;;9.45;6.05;;;;;;;22.05;64.44;100734.19;2095004;28;20516;-74
2022/08/16 02:13:39;;;;;;;10.48;6.53;;;;;;;22.06;64.19;100735.94;2099143;28;20040;-74
2022/08/16 02:15:04;;;;;;;10.45;6.72;;;;;;;22.07;64.22;100741.28;2093488;28;20048;-74
2022/08/16 02:16:26;;;;;;;9.73;6.35;;;;;;;22.05;64.24;100737.78;2089597;28;20056;-73
2022/08/16 02:17:48;;;;;;;11.25;6.32;;;;;;;22.04;64.27;100738.69;2102285;28;20071;-74
2022/08/16 02:19:11;;;;;;;8.15;6.15;;;;;;;22.01;64.29;100732.53;2096407;28;20086;-74
2022/08/16 02:20:35;;;;;;;9.60;5.90;;;;;;;21.97;64.31;100733.56;2101913;28;20163;-73
2022/08/16 02:21:59;;;;;;;10.57;6.38;;;;;;;21.93;64.27;100734.53;2107167;28;20039;-74
2022/08/16 02:23:21;;;;;;;11.50;7.43;;;;;;;21.86;64.39;100740.09;2119182;27;20043;-74
2022/08/16 02:24:44;;;;;;;9.75;6.93;;;;;;;21.83;64.48;100745.59;2099016;28;20059;-73
2022/08/16 02:26:08;;;;;;;9.57;6.00;;;;;;;21.82;64.67;100746.50;2093599;28;20048;-74
2022/08/16 02:27:30;;;;;;;8.88;6.35;;;;;;;21.84;64.65;100755.41;2107701;28;20047;-74
2022/08/16 02:28:53;;;;;;;9.18;6.75;;;;;;;21.87;64.55;100752.63;2095748;28;20044;-74
2022/08/16 02:30:20;;;;;;;10.18;6.03;;;;;;;21.89;64.48;100757.97;2099504;28;20048;-74
2022/08/16 02:31:43;;;;;;;9.60;6.70;;;;;;;21.90;64.52;100757.03;2094552;28;20043;-74
2022/08/16 02:33:04;;;;;;;10.45;6.57;;;;;;;21.90;64.50;100757.03;2100236;28;20048;-74
2022/08/16 02:34:27;;;;;;;;;;;;;;;21.85;64.52;100757.19;2093595;28;20516;-74
2022/08/16 02:35:49;;;;;;;9.90;6.35;;;;;;;21.85;64.57;100757.19;2092385;28;20083;-74
2022/08/16 02:37:12;;;;;;;10.23;6.88;;;;;;;21.85;64.82;100753.63;2109457;28;20070;-74
2022/08/16 02:38:34;;;;;;;9.02;6.22;;;;;;;21.84;64.85;100755.41;2091664;28;20087;-74
2022/08/16 02:39:56;;;;;;;9.65;6.20;;;;;;;21.84;64.94;100759.91;2107254;28;20134;-74
2022/08/16 02:41:20;;;;;;;10.32;5.90;;;;;;;21.84;64.79;100763.47;2095702;28;20044;-74
2022/08/16 02:42:42;;;;;;;9.57;6.03;;;;;;;21.84;64.77;100765.28;2107493;28;20051;-74
2022/08/16 02:44:06;;;;;;;10.23;6.55;;;;;;;21.84;64.69;100768.88;2094843;28;20114;-74
2022/08/16 02:45:29;;;;;;;10.82;5.93;;;;;;;21.85;64.78;100769.75;2101116;28;20056;-74
2022/08/16 02:46:52;;;;;;;8.77;6.05;;;;;;;21.86;64.69;100771.47;2093253;28;20143;-74
2022/08/16 02:48:14;;;;;;;8.27;5.97;;;;;;;21.85;64.61;100765.25;2099380;28;20090;-74
2022/08/16 02:49:36;;;;;;;8.18;5.70;;;;;;;21.82;64.79;100765.31;2102450;28;20068;-74
2022/08/16 02:51:00;;;;;;;10.10;5.97;;;;;;;21.78;64.68;100765.47;2118485;28;20054;-74
2022/08/16 02:52:23;;;;;;;10.20;5.95;;;;;;;21.69;65.04;100763.94;2106354;28;20040;-74
2022/08/16 02:53:47;;;;;;;7.82;5.90;;;;;;;21.62;65.25;100766.84;2093519;28;20055;-74
2022/08/16 02:55:11;;;;;;;8.70;5.93;;;;;;;21.61;65.12;100768.66;2091838;28;20428;-73
2022/08/16 02:56:35;;;;;;;8.63;5.78;;;;;;;21.64;64.99;100770.38;2090679;28;20093;-74
2022/08/16 02:57:57;;;;;;;10.20;5.82;;;;;;;21.67;64.86;100767.59;2098693;28;20139;-74
2022/08/16 02:59:19;;;;;;;9.32;5.30;;;;;;;21.70;64.80;100764.81;2105338;28;20063;-74
2022/08/16 03:00:41;;;;;;;9.13;5.55;;;;;;;21.70;64.77;100770.19;2092183;28;20036;-74
2022/08/16 03:02:04;;;;;;;10.32;6.43;;;;;;;21.73;64.68;100764.72;2093025;28;20048;-74
2022/08/16 03:03:27;;;;;;;9.48;6.20;;;;;;;21.74;64.70;100767.38;2091273;28;20408;-74
2022/08/16 03:04:50;;;;;;;8.50;5.75;;;;;;;21.74;64.71;100770.06;2098179;28;20376;-74
2022/08/16 03:06:12;;;;;;;11.65;5.53;;;;;;;21.71;64.96;100772.84;2091484;28;20064;-74
2022/08/16 03:07:35;;;;;;;9.80;5.93;;;;;;;21.62;65.01;100781.16;2107683;28;20159;-74
2022/08/16 03:08:57;;;;;;;9.90;5.43;;;;;;;21.57;65.41;100771.47;2092551;28;20132;-73
2022/08/16 03:10:21;;;;;;;8.73;5.90;;;;;;;21.59;65.43;100780.41;2105752;28;20044;-74
2022/08/16 03:11:45;;;;;;;9.75;5.45;;;;;;;21.61;65.50;100776.72;2096367;28;20044;-73
2022/08/16 03:13:08;;;;;;;8.63;5.78;;;;;;;21.63;65.47;100779.38;2096979;28;20143;-74
2022/08/16 03:14:29;;;;;;;8.38;5.32;;;;;;;21.66;65.40;100779.28;2090586;28;20064;-74
2022/08/16 03:15:54;;;;;;;9.32;5.70;;;;;;;21.66;65.64;100776.59;2085514;28;20045;-74
2022/08/16 03:17:16;;;;;;;9.73;5.57;;;;;;;21.66;65.46;100774.75;2099200;28;20036;-73
2022/08/16 03:18:39;;;;;;;10.18;6.10;;;;;;;21.63;65.40;100776.69;2093732;28;20072;-73
2022/08/16 03:20:02;;;;;;;8.98;5.82;;;;;;;21.56;65.68;100775.97;2099471;28;20051;-73
2022/08/16 03:21:30;;;;;;;9.05;4.88;;;;;;;21.46;65.70;100787.94;2092873;28;20519;-74
2022/08/16 03:22:55;;;;;;;8.60;5.30;;;;;;;21.37;66.04;100782.81;2090842;28;20547;-73
2022/08/16 03:24:16;;;;;;;8.13;5.18;;;;;;;21.33;66.31;100781.16;2099386;28;20072;-74
2022/08/16 03:25:39;;;;;;;10.10;4.93;;;;;;;21.29;66.25;100783.03;2101442;28;20044;-74
2022/08/16 03:27:03;;;;;;;7.07;4.78;;;;;;;21.25;66.73;100778.66;2101274;28;20041;-73
2022/08/16 03:28:28;;;;;;;8.85;6.00;;;;;;;21.27;66.72;100783.97;2101209;28;20040;-74
2022/08/16 03:29:50;;;;;;;8.52;5.53;;;;;;;21.33;66.74;100784.69;2092958;28;20137;-74
2022/08/16 03:31:13;;;;;;;11.32;6.10;;;;;;;21.38;66.79;100782.78;2107073;28;20060;-73
2022/08/16 03:32:35;;;;;;;10.25;6.03;;;;;;;21.42;66.55;100781.75;2097566;28;20040;-73
2022/08/16 03:33:57;;;;;;;8.75;6.25;;;;;;;21.46;66.51;100791.47;2094739;28;20087;-73
2022/08/16 03:35:21;;;;;;;9.68;5.60;;;;;;;21.47;66.23;100790.53;2099780;28;21051;-74
2022/08/16 03:36:44;;;;;;;11.13;6.18;;;;;;;21.43;66.07;100786.19;2103866;28;20133;-73
2022/08/16 03:38:11;;;;;;;9.05;5.65;;;;;;;21.44;66.27;100782.59;2103252;28;20048;-74
2022/08/16 03:39:40;;;;;;;11.07;5.72;;;;;;;21.45;66.16;100787.03;2096420;28;20048;-74
2022/08/16 03:41:04;;;;;;;8.70;5.50;;;;;;;21.51;66.33;100785.09;2092018;28;20067;-74
2022/08/16 03:42:28;;;;;;;9.55;5.38;;;;;;;21.53;66.35;100788.63;2092290;28;20443;-74
2022/08/16 03:43:54;;;;;;;11.77;6.18;;;;;;;21.51;66.53;100793.16;2092960;28;20052;-74
2022/08/16 03:45:17;;;;;;;9.43;5.70;;;;;;;21.51;66.80;100785.09;2108871;28;20530;-73
2022/08/16 03:46:40;;;;;;;8.90;5.07;;;;;;;21.47;66.92;100787.88;2099129;28;20082;-73
2022/08/16 03:48:03;;;;;;;9.15;5.72;;;;;;;21.50;66.94;100794.09;2092194;28;20127;-74
2022/08/16 03:49:27;;;;;;;9.23;5.55;;;;;;;21.47;66.88;100790.53;2103401;28;20105;-74
2022/08/16 03:50:50;;;;;;;8.65;5.63;;;;;;;21.43;66.89;100788.88;2105044;28;20047;-73
2022/08/16 03:52:12;;;;;;;8.73;5.70;;;;;;;21.40;67.29;100791.66;2093959;28;20401;-74
2022/08/16 03:53:35;;;;;;;8.35;5.45;;;;;;;21.39;67.58;100791.72;2100572;28;20043;-74
2022/08/16 03:54:58;;;;;;;13.02;5.30;;;;;;;21.40;67.75;100796.13;2097436;28;20428;-74
2022/08/16 03:56:21;;;;;;;9.02;5.30;;;;;;;21.46;67.49;100799.53;2094401;28;20048;-73
2022/08/16 03:57:48;;;;;;;12.43;5.82;;;;;;;21.53;67.25;100786.78;2095522;28;20048;-74
2022/08/16 03:59:09;;;;;;;11.25;5.28;;;;;;;21.61;67.17;100800.91;2099649;28;20044;-74
2022/08/16 04:00:42;;;;;;;8.63;5.55;;;;;;;21.67;67.06;100799.84;2098441;28;20105;-73
2022/08/16 04:02:10;;;;;;;9.98;5.30;;;;;;;21.72;67.06;100797.91;2093061;28;20051;-74
2022/08/16 04:03:33;;;;;;;10.68;5.93;;;;;;;21.75;67.17;100805.88;2091129;28;20566;-74
2022/08/16 04:04:56;;;;;;;7.72;5.30;;;;;;;21.77;67.04;100798.66;2100170;28;20048;-73
2022/08/16 04:06:19;;;;;;;7.55;5.00;;;;;;;21.81;66.75;100792.25;2096398;28;20068;-73
2022/08/16 04:07:42;;;;;;;8.88;5.05;;;;;;;21.84;66.64;100801.13;2099912;28;20044;-74
2022/08/16 04:09:05;;;;;;;10.70;6.00;;;;;;;21.88;66.68;100807.25;2097143;28;20049;-73
2022/08/16 04:10:27;;;;;;;12.73;5.22;;;;;;;21.90;66.66;100805.41;2088725;28;20052;-74
2022/08/16 04:11:50;;;;;;;10.20;5.65;;;;;;;21.92;66.86;100808.06;2104350;28;20699;-74
2022/08/16 04:13:14;;;;;;;9.05;5.45;;;;;;;22.02;67.06;100804.19;2095297;28;20089;-74
2022/08/16 04:14:37;;;;;;;10.05;5.30;;;;;;;22.14;66.93;100801.13;2094914;28;20143;-74
2022/08/16 04:15:58;;;;;;;7.63;4.60;;;;;;;22.28;66.85;100809.63;2091676;28;20040;-74
2022/08/16 04:17:21;;;;;;;9.23;5.05;;;;;;;22.42;66.60;100798.44;2108484;28;20056;-74
2022/08/16 04:18:42;;;;;;;7.43;4.78;;;;;;;22.56;66.35;100799.75;2096903;28;20044;-73
2022/08/16 04:20:07;;;;;;;8.55;4.32;;;;;;;22.72;66.26;100807.28;2094615;28;20040;-74
2022/08/16 04:21:29;;;;;;;7.30;4.57;;;;;;;22.83;66.32;100803.38;2092785;28;20033;-74
2022/08/16 04:22:52;;;;;;;;;;;;;;;22.94;66.01;100811.94;2109976;27;20043;-74
2022/08/16 04:24:15;;;;;;;;;;;;;;;23.04;66.05;100802.59;2106000;28;19920;-74
2022/08/16 04:25:37;;;;;;;5.90;4.30;;;;;;;23.21;66.04;100803.81;2095808;28;19924;-74
2022/08/16 04:27:03;;;;;;;8.27;4.47;;;;;;;23.37;65.77;100810.41;2092345;28;20131;-73
2022/08/16 04:28:27;;;;;;;9.45;4.72;;;;;;;23.53;65.38;100803.56;2107857;28;20063;-73
2022/08/16 04:29:48;;;;;;;6.90;4.45;;;;;;;23.66;65.17;100804.88;2096194;28;20421;-74
2022/08/16 04:31:12;;;;;;;9.25;4.22;;;;;;;23.77;64.81;100799.06;2092811;28;20060;-74
2022/08/16 04:32:36;;;;;;;7.07;4.18;;;;;;;23.92;64.48;100801.16;2091588;28;20040;-73
2022/08/16 04:34:01;;;;;;;5.95;3.38;;;;;;;24.06;63.93;100808.72;2091998;28;20459;-74
2022/08/16 04:35:23;;;;;;;8.00;4.53;;;;;;;24.17;63.77;100811.88;2092059;28;20049;-73
2022/08/16 04:36:48;;;;;;;9.15;4.43;;;;;;;24.31;63.31;100808.66;2098095;28;20043;-74
2022/08/16 04:38:09;;;;;;;7.35;3.90;;;;;;;24.48;62.99;100808.88;2091659;28;20571;-73
2022/08/16 04:39:37;;;;;;;6.13;3.72;;;;;;;24.65;62.73;100802.75;2100550;28;20220;-74
2022/08/16 04:41:00;;;;;;;7.70;4.10;;;;;;;24.82;62.36;100808.31;2106015;28;20419;-74
2022/08/16 04:42:23;;;;;;;8.90;3.72;;;;;;;24.98;62.15;100809.47;2093692;28;20052;-74
2022/08/16 04:43:47;;;;;;;9.10;3.90;;;;;;;25.16;61.98;100805.97;2088949;28;20132;-74
2022/08/16 04:45:12;;;;;;;6.43;3.42;;;;;;;25.35;61.66;100808.72;2088742;28;20132;-74
2022/08/16 04:46:35;;;;;;;4.10;2.75;;;;;;;25.54;61.19;100820.47;2091171;28;20507;-74
2022/08/16 04:47:59;;;;;;;7.35;3.35;;;;;;;25.70;60.87;100812.56;2097014;28;20059;-74
2022/08/16 04:49:28;;;;;;;5.35;3.20;;;;;;;25.87;60.36;100814.47;2094377;28;20453;-74
2022/08/16 04:50:51;;;;;;;4.95;2.78;;;;;;;26.02;60.16;100819.19;2090791;28;20057;-74
2022/08/16 04:52:15;;;;;;;7.07;3.25;;;;;;;26.18;59.99;100815.69;2111900;28;20043;-74
2022/08/16 04:53:38;;;;;;;5.47;2.90;;;;;;;26.33;59.70;100819.50;2096951;28;20056;-75
2022/08/16 04:54:59;;;;;;;9.65;3.50;;;;;;;26.53;59.38;100821.22;2108498;28;20044;-74
2022/08/16 04:56:22;;;;;;;5.03;2.95;;;;;;;26.70;59.10;100813.16;2096379;28;20149;-74
2022/08/16 04:57:48;;;;;;;5.75;3.10;;;;;;;26.89;58.67;100818.56;2099949;28;20167;-74
2022/08/16 04:59:12;;;;;;;6.43;3.05;;;;;;;27.05;58.22;100816.78;2096009;28;20060;-74
2022/08/16 05:00:35;;;;;;;5.22;2.90;;;;;;;27.23;57.84;100823.13;2094899;28;20041;-74
2022/08/16 05:02:05;;;;;;;6.80;3.20;;;;;;;27.39;57.61;100824.03;2085261;28;20048;-73
2022/08/16 05:03:27;;;;;;;4.43;2.70;;;;;;;27.55;57.13;100819.59;2110233;27;21309;-74
2022/08/16 05:04:50;;;;;;;6.45;2.92;;;;;;;27.72;56.71;100821.38;2108013;28;20147;-74
2022/08/16 05:06:12;;;;;;;5.90;2.67;;;;;;;27.87;56.43;100820.56;2116099;27;21805;-73
2022/08/16 05:07:34;;;;;;;6.55;2.97;;;;;;;28.04;55.98;100828.63;2092142;28;20110;-74
2022/08/16 05:08:59;;;;;;;5.10;2.67;;;;;;;28.23;55.81;100827.63;2101622;28;20194;-74
2022/08/16 05:10:22;;;;;;;6.70;2.90;;;;;;;28.42;55.44;100828.34;2096481;28;20044;-74
2022/08/16 05:11:44;;;;;;;4.65;2.50;;;;;;;28.59;54.96;100828.25;2102513;28;20036;-74
2022/08/16 05:13:08;;;;;;;6.30;2.65;;;;;;;28.76;54.58;100836.31;2087811;28;20416;-74
2022/08/16 05:14:31;;;;;;;4.63;2.58;;;;;;;28.92;54.12;100833.56;2091741;28;20097;-74
2022/08/16 05:15:54;;;;;;;4.40;2.72;;;;;;;29.07;53.79;100834.50;2085906;28;20386;-74
2022/08/16 05:17:19;;;;;;;6.53;2.95;;;;;;;29.23;53.64;100825.31;2106184;28;20130;-73
2022/08/16 05:18:43;;;;;;;5.57;2.60;;;;;;;29.37;53.17;100824.50;2096735;28;20064;-74
2022/08/16 05:20:08;;;;;;;6.47;2.30;;;;;;;29.53;52.73;100830.78;2105496;28;20100;-74
2022/08/16 05:21:37;;;;;;;4.68;2.50;;;;;;;29.69;52.41;100825.22;2095358;28;20404;-74
2022/08/16 05:23:00;;;;;;;4.65;2.63;;;;;;;29.83;52.20;100817.06;2091254;28;20464;-74
2022/08/16 05:24:22;;;;;;;5.00;2.15;;;;;;;30.01;51.98;100826.81;2090213;28;20143;-74
2022/08/16 05:25:45;;;;;;;5.18;2.50;;;;;;;30.22;51.39;100832.72;2092104;28;20040;-74
2022/08/16 05:27:07;;;;;;;4.80;2.70;;;;;;;30.43;50.72;100827.72;2099115;28;20616;-75
2022/08/16 05:28:29;;;;;;;4.40;2.22;;;;;;;30.56;50.07;100828.69;2085264;28;20048;-74
2022/08/16 05:29:53;;;;;;;5.82;2.35;;;;;;;30.69;49.76;100826.91;2092291;28;20044;-74
2022/08/16 05:31:17;;;;;;;4.35;2.17;;;;;;;30.80;49.14;100827.06;2088201;28;20045;-74
2022/08/16 05:32:41;;;;;;;3.22;1.98;;;;;;;30.87;49.15;100822.06;2104356;28;20671;-74
2022/08/16 05:34:04;;;;;;;5.72;2.55;;;;;;;30.86;48.87;100821.19;2092494;28;20127;-73
2022/08/16 05:35:28;;;;;;;5.43;2.20;;;;;;;30.99;48.51;100831.25;2096717;28;20525;-74
2022/08/16 05:37:03;;;;;;;4.00;1.98;;;;;;;31.12;48.12;100824.00;2092448;28;20063;-74
2022/08/16 05:38:31;;;;;;;5.35;2.47;;;;;;;31.23;47.46;100827.75;2095269;28;20527;-74
2022/08/16 05:39:55;;;;;;;4.32;1.80;;;;;;;31.38;47.18;100823.06;2093503;28;20302;-74
2022/08/16 05:41:18;;;;;;;4.88;2.13;;;;;;;31.47;46.87;100819.72;2087125;28;20053;-74
2022/08/16 05:42:41;;;;;;;4.35;2.10;;;;;;;31.57;46.13;100828.13;2099314;28;20526;-74
2022/08/16 05:44:04;;;;;;;3.22;2.00;;;;;;;31.69;45.68;100829.16;2085475;28;20148;-74
2022/08/16 05:45:33;;;;;;;5.07;1.92;;;;;;;31.81;45.35;100820.94;2092748;28;20048;-75
2022/08/16 05:47:00;;;;;;;3.33;1.90;;;;;;;31.94;45.28;100820.94;2098135;28;20040;-75
2022/08/16 05:48:24;;;;;;;3.83;2.47;;;;;;;32.09;44.61;100814.34;2088757;28;20043;-74
2022/08/16 05:49:57;;;;;;;3.40;1.70;;;;;;;32.27;44.54;100818.50;2092236;28;20072;-75
2022/08/16 05:51:20;;;;;;;3.83;1.80;;;;;;;32.41;44.07;100823.81;2105346;28;20043;-74
2022/08/16 05:52:43;;;;;;;6.28;2.80;;;;;;;32.46;43.58;100823.47;2088785;28;20045;-76
2022/08/16 05:54:04;;;;;;;4.25;2.13;;;;;;;32.49;43.24;100817.78;2099731;28;20039;-75
2022/08/16 05:55:27;;;;;;;4.25;1.92;;;;;;;32.57;43.08;100814.44;2095429;28;20048;-75
2022/08/16 05:56:49;;;;;;;3.55;2.17;;;;;;;32.64;42.56;100822.06;2088068;28;20056;-74
2022/08/16 05:58:12;;;;;;;3.53;2.00;;;;;;;32.67;42.31;100816.44;2104492;27;20653;-75
2022/08/16 05:59:35;;;;;;;2.97;1.75;;;;;;;32.64;41.85;100816.59;2106259;28;20662;-74
2022/08/16 06:00:59;;;;;;;5.18;2.00;;;;;;;32.65;41.73;100820.22;2111941;27;20085;-75
2022/08/16 06:02:26;;;;;;;5.07;1.98;;;;;;;32.71;41.97;100819.78;2084969;28;20508;-75
2022/08/16 06:03:49;;;;;;;2.20;1.60;;;;;;;32.86;41.89;100815.88;2108008;28;20055;-75
2022/08/16 06:05:21;;;;;;;5.78;1.80;;;;;;;33.00;41.31;100826.66;2096160;28;20048;-77
2022/08/16 06:06:45;;;;;;;4.65;1.77;;;;;;;33.05;40.83;100826.28;2099901;28;20143;-77
2022/08/16 06:08:08;;;;;;;2.95;1.70;;;;;;;33.08;40.82;100826.06;2099509;28;20540;-76
2022/08/16 06:09:38;;;;;;;4.82;1.80;;;;;;;33.21;40.78;100835.94;2114428;27;20054;-75
2022/08/16 06:11:01;;;;;;;3.55;2.33;;;;;;;33.33;40.53;100836.88;2101240;28;20032;-75
2022/08/16 06:12:24;;;;;;;3.60;1.88;;;;;;;33.41;40.19;100833.53;2094843;28;20093;-75
2022/08/16 06:13:47;;;;;;;2.20;1.60;;;;;;;33.42;40.03;100830.66;2098212;28;20045;-76
2022/08/16 06:15:20;;;;;;;2.92;1.77;;;;;;;33.51;39.95;100832.69;2092984;28;20063;-76
2022/08/16 06:16:44;;;;;;;3.05;1.70;;;;;;;33.64;39.45;100838.06;2085625;28;20032;-76
2022/08/16 06:18:05;;;;;;;2.30;1.65;;;;;;;33.56;39.25;100829.56;2090985;28;20044;-76
2022/08/16 06:19:28;;;;;;;;;;;;;;;33.38;39.61;100822.81;2104336;28;20108;-76
2022/08/16 06:20:58;;;;;;;4.05;1.63;;;;;;;33.47;39.78;100822.97;2099690;28;19962;-74
2022/08/16 06:22:22;;;;;;;4.55;1.95;;;;;;;33.52;39.53;100823.47;2088921;28;20056;-76
2022/08/16 06:23:44;;;;;;;3.03;1.60;;;;;;;33.54;39.30;100813.25;2088190;28;20539;-76
2022/08/16 06:25:07;;;;;;;3.47;1.90;;;;;;;33.53;39.02;100808.81;2086894;28;20041;-75
2022/08/16 06:26:29;;;;;;;2.95;1.70;;;;;;;33.50;38.89;100810.91;2110535;28;20043;-76
2022/08/16 06:27:52;;;;;;;2.75;1.50;;;;;;;33.58;38.84;100819.38;2099738;28;20052;-76
2022/08/16 06:29:14;;;;;;;3.05;1.95;;;;;;;33.74;38.97;100814.44;2112957;27;20047;-76